createdAt,value
2016-12-30T00:00:04.261Z,1026.73
2016-12-30T00:01:04.267Z,1026.72
2016-12-30T00:02:04.282Z,1026.7
2016-12-30T00:03:04.297Z,1026.66
2016-12-30T00:04:04.309Z,1026.63
2016-12-30T00:05:04.323Z,1026.61
2016-12-30T00:06:04.336Z,1026.56
2016-12-30T00:07:04.353Z,1026.57
2016-12-30T00:08:04.363Z,1026.56
2016-12-30T00:09:04.376Z,1026.56
2016-12-30T00:10:04.391Z,1026.58
2016-12-30T00:11:04.405Z,1026.58
2016-12-30T00:12:04.422Z,1026.59
2016-12-30T00:13:04.435Z,1026.6
2016-12-30T00:14:04.450Z,1026.63
2016-12-30T00:15:04.459Z,1026.64
2016-12-30T00:16:04.473Z,1026.61
2016-12-30T00:17:04.484Z,1026.62
2016-12-30T00:18:04.499Z,1026.58
2016-12-30T00:19:04.515Z,1026.59
2016-12-30T00:20:04.527Z,1026.58
2016-12-30T00:21:04.541Z,1026.61
2016-12-30T00:22:04.556Z,1026.63
2016-12-30T00:23:04.568Z,1026.6
2016-12-30T00:24:04.581Z,1026.59
2016-12-30T00:25:04.596Z,1026.61
2016-12-30T00:26:04.609Z,1026.6
2016-12-30T00:27:04.620Z,1026.57
2016-12-30T00:28:04.634Z,1026.56
2016-12-30T00:29:04.647Z,1026.6
2016-12-30T00:30:04.665Z,1026.54
2016-12-30T00:31:04.675Z,1026.56
2016-12-30T00:32:04.690Z,1026.58
2016-12-30T00:33:04.705Z,1026.55
2016-12-30T00:34:04.714Z,1026.58
2016-12-30T00:35:04.729Z,1026.56
2016-12-30T00:36:04.746Z,1026.53
2016-12-30T00:37:04.756Z,1026.55
2016-12-30T00:38:04.774Z,1026.55
2016-12-30T00:39:04.783Z,1026.53
2016-12-30T00:40:04.802Z,1026.57
2016-12-30T00:41:04.814Z,1026.57
2016-12-30T00:42:04.828Z,1026.62
2016-12-30T00:43:04.835Z,1026.56
2016-12-30T00:44:04.852Z,1026.63
2016-12-30T00:45:04.863Z,1026.67
2016-12-30T00:46:04.877Z,1026.65
2016-12-30T00:47:04.890Z,1026.68
2016-12-30T00:48:04.904Z,1026.66
2016-12-30T00:49:04.921Z,1026.67
2016-12-30T00:50:04.931Z,1026.69
2016-12-30T00:51:04.944Z,1026.68
2016-12-30T00:52:04.958Z,1026.7
2016-12-30T00:53:04.970Z,1026.72
2016-12-30T00:54:04.983Z,1026.71
2016-12-30T00:55:04.997Z,1026.71
2016-12-30T00:56:05.010Z,1026.66
2016-12-30T00:57:05.024Z,1026.71
2016-12-30T00:58:05.039Z,1026.66
2016-12-30T00:59:05.052Z,1026.7
2016-12-30T01:00:05.069Z,1026.69
2016-12-30T01:01:05.077Z,1026.71
2016-12-30T01:02:05.092Z,1026.75
2016-12-30T01:03:05.109Z,1026.74
2016-12-30T01:04:05.120Z,1026.77
2016-12-30T01:05:05.134Z,1026.76
2016-12-30T01:06:05.152Z,1026.82
2016-12-30T01:07:05.161Z,1026.83
2016-12-30T01:08:05.173Z,1026.8
2016-12-30T01:09:05.188Z,1026.75
2016-12-30T01:10:05.203Z,1026.69
2016-12-30T01:11:05.214Z,1026.69
2016-12-30T01:12:05.230Z,1026.68
2016-12-30T01:13:05.242Z,1026.68
2016-12-30T01:14:05.256Z,1026.69
2016-12-30T01:15:05.266Z,1026.72
2016-12-30T01:16:05.282Z,1026.72
2016-12-30T01:17:05.296Z,1026.7
2016-12-30T01:18:05.309Z,1026.75
2016-12-30T01:19:05.321Z,1026.7
2016-12-30T01:20:05.385Z,1026.71
2016-12-30T01:21:05.348Z,1026.68
2016-12-30T01:22:05.360Z,1026.67
2016-12-30T01:23:05.378Z,1026.67
2016-12-30T01:24:05.387Z,1026.69
2016-12-30T01:25:05.400Z,1026.67
2016-12-30T01:26:05.413Z,1026.64
2016-12-30T01:27:05.426Z,1026.61
2016-12-30T01:28:05.440Z,1026.62
2016-12-30T01:29:05.453Z,1026.63
2016-12-30T01:30:05.467Z,1026.6
2016-12-30T01:31:05.481Z,1026.56
2016-12-30T01:32:05.493Z,1026.59
2016-12-30T01:33:05.508Z,1026.58
2016-12-30T01:34:05.520Z,1026.58
2016-12-30T01:35:05.534Z,1026.56
2016-12-30T01:36:05.565Z,1026.53
2016-12-30T01:37:05.635Z,1026.52
2016-12-30T01:38:05.647Z,1026.55
2016-12-30T01:39:05.641Z,1026.51
2016-12-30T01:40:05.790Z,1026.55
2016-12-30T01:41:05.657Z,1026.52
2016-12-30T01:42:05.669Z,1026.54
2016-12-30T01:43:05.675Z,1026.55
2016-12-30T01:44:05.684Z,1026.53
2016-12-30T01:45:05.823Z,1026.57
2016-12-30T01:46:05.691Z,1026.57
2016-12-30T01:47:05.693Z,1026.56
2016-12-30T01:48:05.705Z,1026.59
2016-12-30T01:49:05.719Z,1026.56
2016-12-30T01:50:05.732Z,1026.54
2016-12-30T01:51:05.745Z,1026.53
2016-12-30T01:52:05.758Z,1026.47
2016-12-30T01:53:05.771Z,1026.48
2016-12-30T01:54:05.792Z,1026.42
2016-12-30T01:55:05.798Z,1026.41
2016-12-30T01:56:05.810Z,1026.37
2016-12-30T01:57:05.824Z,1026.37
2016-12-30T01:58:05.842Z,1026.39
2016-12-30T01:59:05.854Z,1026.37
2016-12-30T02:00:05.864Z,1026.36
2016-12-30T02:01:05.877Z,1026.33
2016-12-30T02:02:05.889Z,1026.3
2016-12-30T02:03:05.906Z,1026.31
2016-12-30T02:04:05.921Z,1026.29
2016-12-30T02:05:05.931Z,1026.27
2016-12-30T02:06:05.943Z,1026.26
2016-12-30T02:07:05.956Z,1026.29
2016-12-30T02:08:05.970Z,1026.26
2016-12-30T02:09:05.984Z,1026.24
2016-12-30T02:10:05.995Z,1026.2
2016-12-30T02:11:06.009Z,1026.24
2016-12-30T02:12:06.023Z,1026.22
2016-12-30T02:13:06.036Z,1026.22
2016-12-30T02:14:06.082Z,1026.2
2016-12-30T02:15:06.063Z,1026.17
2016-12-30T02:16:06.075Z,1026.13
2016-12-30T02:17:06.087Z,1026.2
2016-12-30T02:18:06.100Z,1026.14
2016-12-30T02:19:06.116Z,1026.13
2016-12-30T02:20:06.126Z,1026.17
2016-12-30T02:21:06.141Z,1026.14
2016-12-30T02:22:06.153Z,1026.11
2016-12-30T02:23:06.169Z,1026.13
2016-12-30T02:24:06.182Z,1026.04
2016-12-30T02:25:06.193Z,1026.05
2016-12-30T02:26:06.210Z,1026.07
2016-12-30T02:27:06.219Z,1026.02
2016-12-30T02:28:06.232Z,1026.02
2016-12-30T02:29:06.249Z,1026.06
2016-12-30T02:30:06.260Z,1026.05
2016-12-30T02:31:06.272Z,1026.06
2016-12-30T02:32:06.284Z,1026.08
2016-12-30T02:33:06.296Z,1026.1
2016-12-30T02:34:06.310Z,1026.14
2016-12-30T02:35:06.328Z,1026.15
2016-12-30T02:36:06.336Z,1026.12
2016-12-30T02:37:06.348Z,1026.15
2016-12-30T02:38:06.365Z,1026.12
2016-12-30T02:39:06.375Z,1026.13
2016-12-30T02:40:06.388Z,1026.11
2016-12-30T02:41:06.403Z,1026.09
2016-12-30T02:42:06.414Z,1026.09
2016-12-30T02:43:06.434Z,1026.05
2016-12-30T02:44:06.442Z,1026.04
2016-12-30T02:45:06.462Z,1026.07
2016-12-30T02:46:06.468Z,1026.07
2016-12-30T02:47:06.482Z,1026.11
2016-12-30T02:48:06.496Z,1026.13
2016-12-30T02:49:06.508Z,1026.12
2016-12-30T02:50:06.537Z,1026.11
2016-12-30T02:51:06.531Z,1026.08
2016-12-30T02:52:06.546Z,1026.11
2016-12-30T02:53:06.560Z,1026.08
2016-12-30T02:54:06.572Z,1026.12
2016-12-30T02:55:06.587Z,1026.09
2016-12-30T02:56:06.597Z,1026.08
2016-12-30T02:57:06.610Z,1026.09
2016-12-30T02:58:06.623Z,1026.07
2016-12-30T02:59:06.636Z,1026.12
2016-12-30T03:00:06.648Z,1026.08
2016-12-30T03:01:06.662Z,1026.18
2016-12-30T03:02:06.674Z,1026.16
2016-12-30T03:03:06.691Z,1026.14
2016-12-30T03:04:06.701Z,1026.16
2016-12-30T03:05:06.713Z,1026.13
2016-12-30T03:06:06.728Z,1026.09
2016-12-30T03:07:06.740Z,1026.14
2016-12-30T03:08:06.753Z,1026.17
2016-12-30T03:09:06.767Z,1026.11
2016-12-30T03:10:06.780Z,1026.13
2016-12-30T03:11:06.792Z,1026.14
2016-12-30T03:12:06.804Z,1026.18
2016-12-30T03:13:06.817Z,1026.18
2016-12-30T03:14:06.831Z,1026.18
2016-12-30T03:15:06.843Z,1026.22
2016-12-30T03:16:06.860Z,1026.15
2016-12-30T03:17:06.870Z,1026.2
2016-12-30T03:18:06.884Z,1026.15
2016-12-30T03:19:06.894Z,1026.13
2016-12-30T03:20:06.912Z,1026.08
2016-12-30T03:21:06.921Z,1026.07
2016-12-30T03:22:06.934Z,1026.06
2016-12-30T03:23:06.948Z,1026.04
2016-12-30T03:24:06.961Z,1026.02
2016-12-30T03:25:06.974Z,1025.97
2016-12-30T03:26:06.985Z,1025.96
2016-12-30T03:27:06.999Z,1025.91
2016-12-30T03:28:07.014Z,1025.91
2016-12-30T03:29:07.025Z,1025.92
2016-12-30T03:30:07.038Z,1025.95
2016-12-30T03:31:07.050Z,1025.94
2016-12-30T03:32:07.064Z,1025.92
2016-12-30T03:33:07.075Z,1025.93
2016-12-30T03:34:07.090Z,1025.98
2016-12-30T03:35:07.102Z,1025.96
2016-12-30T03:36:07.115Z,1025.94
2016-12-30T03:37:07.127Z,1025.9
2016-12-30T03:38:07.145Z,1025.87
2016-12-30T03:39:07.153Z,1025.87
2016-12-30T03:40:07.166Z,1025.82
2016-12-30T03:41:07.178Z,1025.86
2016-12-30T03:42:07.193Z,1025.89
2016-12-30T03:43:07.204Z,1025.9
2016-12-30T03:44:07.219Z,1025.9
2016-12-30T03:45:07.230Z,1025.93
2016-12-30T03:46:07.249Z,1025.94
2016-12-30T03:47:07.259Z,1025.96
2016-12-30T03:48:07.269Z,1025.95
2016-12-30T03:49:07.281Z,1025.97
2016-12-30T03:50:07.294Z,1025.96
2016-12-30T03:51:07.309Z,1025.97
2016-12-30T03:52:07.320Z,1025.96
2016-12-30T03:53:07.342Z,1025.97
2016-12-30T03:54:07.347Z,1025.94
2016-12-30T03:55:07.357Z,1025.96
2016-12-30T03:56:07.372Z,1025.98
2016-12-30T03:57:07.386Z,1025.97
2016-12-30T03:58:07.397Z,1025.94
2016-12-30T03:59:07.411Z,1025.92
2016-12-30T04:00:07.424Z,1025.91
2016-12-30T04:01:07.435Z,1025.88
2016-12-30T04:02:07.451Z,1025.9
2016-12-30T04:03:07.461Z,1025.87
2016-12-30T04:04:07.475Z,1025.89
2016-12-30T04:05:07.487Z,1025.92
2016-12-30T04:06:07.514Z,1025.91
2016-12-30T04:07:07.511Z,1025.94
2016-12-30T04:08:07.525Z,1025.95
2016-12-30T04:09:07.540Z,1025.94
2016-12-30T04:10:07.550Z,1025.9
2016-12-30T04:11:07.564Z,1025.91
2016-12-30T04:12:07.576Z,1025.92
2016-12-30T04:13:07.590Z,1025.89
2016-12-30T04:14:07.602Z,1025.84
2016-12-30T04:15:07.615Z,1025.85
2016-12-30T04:16:07.629Z,1025.89
2016-12-30T04:17:07.642Z,1025.9
2016-12-30T04:18:07.657Z,1025.87
2016-12-30T04:19:07.669Z,1025.84
2016-12-30T04:20:07.684Z,1025.87
2016-12-30T04:21:07.694Z,1025.81
2016-12-30T04:22:07.705Z,1025.84
2016-12-30T04:23:07.717Z,1025.83
2016-12-30T04:24:07.737Z,1025.82
2016-12-30T04:25:07.746Z,1025.8
2016-12-30T04:26:07.756Z,1025.83
2016-12-30T04:27:07.770Z,1025.84
2016-12-30T04:28:07.782Z,1025.86
2016-12-30T04:29:07.793Z,1025.86
2016-12-30T04:30:07.809Z,1025.84
2016-12-30T04:31:07.826Z,1025.86
2016-12-30T04:32:07.832Z,1025.86
2016-12-30T04:33:07.844Z,1025.85
2016-12-30T04:34:07.860Z,1025.85
2016-12-30T04:35:07.869Z,1025.85
2016-12-30T04:36:07.885Z,1025.81
2016-12-30T04:37:07.898Z,1025.79
2016-12-30T04:38:07.910Z,1025.81
2016-12-30T04:39:07.921Z,1025.8
2016-12-30T04:40:07.933Z,1025.82
2016-12-30T04:41:07.948Z,1025.81
2016-12-30T04:42:07.960Z,1025.84
2016-12-30T04:43:07.973Z,1025.84
2016-12-30T04:44:07.991Z,1025.85
2016-12-30T04:45:08.001Z,1025.85
2016-12-30T04:46:08.008Z,1025.83
2016-12-30T04:47:08.022Z,1025.8
2016-12-30T04:48:08.035Z,1025.77
2016-12-30T04:49:08.048Z,1025.76
2016-12-30T04:50:08.061Z,1025.77
2016-12-30T04:51:08.073Z,1025.77
2016-12-30T04:52:08.086Z,1025.8
2016-12-30T04:53:08.098Z,1025.76
2016-12-30T04:54:08.111Z,1025.77
2016-12-30T04:55:08.126Z,1025.74
2016-12-30T04:56:08.137Z,1025.68
2016-12-30T04:57:08.149Z,1025.67
2016-12-30T04:58:08.161Z,1025.68
2016-12-30T04:59:08.175Z,1025.66
2016-12-30T05:00:08.188Z,1025.69
2016-12-30T05:01:08.203Z,1025.71
2016-12-30T05:02:08.213Z,1025.72
2016-12-30T05:03:08.226Z,1025.72
2016-12-30T05:04:08.244Z,1025.74
2016-12-30T05:05:08.250Z,1025.72
2016-12-30T05:06:08.262Z,1025.75
2016-12-30T05:07:08.275Z,1025.74
2016-12-30T05:08:08.288Z,1025.71
2016-12-30T05:09:08.300Z,1025.73
2016-12-30T05:10:08.316Z,1025.67
2016-12-30T05:11:08.325Z,1025.68
2016-12-30T05:12:08.337Z,1025.66
2016-12-30T05:13:08.350Z,1025.68
2016-12-30T05:14:08.362Z,1025.67
2016-12-30T05:15:08.376Z,1025.65
2016-12-30T05:16:08.389Z,1025.63
2016-12-30T05:17:08.401Z,1025.65
2016-12-30T05:18:08.414Z,1025.6
2016-12-30T05:19:08.425Z,1025.58
2016-12-30T05:20:08.440Z,1025.57
2016-12-30T05:21:08.450Z,1025.57
2016-12-30T05:22:08.464Z,1025.53
2016-12-30T05:23:08.476Z,1025.53
2016-12-30T05:24:08.489Z,1025.51
2016-12-30T05:25:08.500Z,1025.51
2016-12-30T05:26:08.513Z,1025.55
2016-12-30T05:27:08.525Z,1025.54
2016-12-30T05:28:08.539Z,1025.54
2016-12-30T05:29:08.551Z,1025.53
2016-12-30T05:30:08.563Z,1025.55
2016-12-30T05:31:08.575Z,1025.54
2016-12-30T05:32:08.589Z,1025.51
2016-12-30T05:33:08.601Z,1025.51
2016-12-30T05:34:08.613Z,1025.53
2016-12-30T05:35:08.625Z,1025.49
2016-12-30T05:36:08.638Z,1025.48
2016-12-30T05:37:08.653Z,1025.48
2016-12-30T05:38:08.666Z,1025.44
2016-12-30T05:39:08.676Z,1025.43
2016-12-30T05:40:08.690Z,1025.44
2016-12-30T05:41:08.700Z,1025.43
2016-12-30T05:42:08.715Z,1025.49
2016-12-30T05:43:08.726Z,1025.44
2016-12-30T05:44:08.739Z,1025.42
2016-12-30T05:45:08.781Z,1025.45
2016-12-30T05:46:08.925Z,1025.44
2016-12-30T05:47:08.784Z,1025.45
2016-12-30T05:48:08.794Z,1025.45
2016-12-30T05:49:08.799Z,1025.43
2016-12-30T05:50:08.815Z,1025.46
2016-12-30T05:51:08.826Z,1025.5
2016-12-30T05:52:08.838Z,1025.5
2016-12-30T05:53:08.850Z,1025.53
2016-12-30T05:54:08.867Z,1025.52
2016-12-30T05:55:08.877Z,1025.5
2016-12-30T05:56:08.888Z,1025.51
2016-12-30T05:57:08.903Z,1025.45
2016-12-30T05:58:08.914Z,1025.46
2016-12-30T05:59:08.925Z,1025.51
2016-12-30T06:00:08.938Z,1025.51
2016-12-30T06:01:08.950Z,1025.47
2016-12-30T06:02:08.963Z,1025.51
2016-12-30T06:03:08.975Z,1025.52
2016-12-30T06:04:08.988Z,1025.55
2016-12-30T06:05:09.001Z,1025.58
2016-12-30T06:06:09.119Z,1025.58
2016-12-30T06:07:09.025Z,1025.56
2016-12-30T06:08:09.036Z,1025.57
2016-12-30T06:09:09.050Z,1025.58
2016-12-30T06:10:09.061Z,1025.54
2016-12-30T06:11:09.073Z,1025.57
2016-12-30T06:12:09.087Z,1025.55
2016-12-30T06:13:09.100Z,1025.56
2016-12-30T06:14:09.112Z,1025.58
2016-12-30T06:15:09.124Z,1025.57
2016-12-30T06:16:09.137Z,1025.6
2016-12-30T06:17:09.149Z,1025.57
2016-12-30T06:18:09.162Z,1025.52
2016-12-30T06:19:09.178Z,1025.52
2016-12-30T06:20:09.186Z,1025.48
2016-12-30T06:21:09.198Z,1025.49
2016-12-30T06:22:09.216Z,1025.46
2016-12-30T06:23:09.223Z,1025.46
2016-12-30T06:24:09.236Z,1025.49
2016-12-30T06:25:09.250Z,1025.5
2016-12-30T06:26:09.262Z,1025.5
2016-12-30T06:27:09.272Z,1025.5
2016-12-30T06:28:09.286Z,1025.47
2016-12-30T06:29:09.297Z,1025.48
2016-12-30T06:30:09.308Z,1025.49
2016-12-30T06:31:09.322Z,1025.48
2016-12-30T06:32:09.333Z,1025.47
2016-12-30T06:33:09.350Z,1025.45
2016-12-30T06:34:09.359Z,1025.45
2016-12-30T06:35:09.371Z,1025.48
2016-12-30T06:36:09.383Z,1025.43
2016-12-30T06:37:09.396Z,1025.43
2016-12-30T06:38:09.418Z,1025.49
2016-12-30T06:39:09.420Z,1025.46
2016-12-30T06:40:09.433Z,1025.49
2016-12-30T06:41:09.444Z,1025.48
2016-12-30T06:42:09.457Z,1025.51
2016-12-30T06:43:09.469Z,1025.55
2016-12-30T06:44:09.482Z,1025.59
2016-12-30T06:45:09.495Z,1025.6
2016-12-30T06:46:09.506Z,1025.6
2016-12-30T06:47:09.517Z,1025.57
2016-12-30T06:48:09.532Z,1025.54
2016-12-30T06:49:09.545Z,1025.52
2016-12-30T06:50:09.557Z,1025.52
2016-12-30T06:51:09.570Z,1025.53
2016-12-30T06:52:09.582Z,1025.55
2016-12-30T06:53:09.595Z,1025.57
2016-12-30T06:54:09.605Z,1025.58
2016-12-30T06:55:09.620Z,1025.57
2016-12-30T06:56:09.629Z,1025.58
2016-12-30T06:57:09.641Z,1025.53
2016-12-30T06:58:09.655Z,1025.54
2016-12-30T06:59:09.666Z,1025.52
2016-12-30T07:00:09.678Z,1025.5
2016-12-30T07:01:09.693Z,1025.51
2016-12-30T07:02:09.703Z,1025.51
2016-12-30T07:03:09.715Z,1025.49
2016-12-30T07:04:09.728Z,1025.48
2016-12-30T07:05:09.738Z,1025.5
2016-12-30T07:06:09.751Z,1025.48
2016-12-30T07:07:09.764Z,1025.42
2016-12-30T07:08:09.776Z,1025.45
2016-12-30T07:09:09.790Z,1025.42
2016-12-30T07:10:09.801Z,1025.44
2016-12-30T07:11:09.816Z,1025.42
2016-12-30T07:12:09.825Z,1025.41
2016-12-30T07:13:09.839Z,1025.46
2016-12-30T07:14:09.854Z,1025.43
2016-12-30T07:15:09.862Z,1025.46
2016-12-30T07:16:09.875Z,1025.45
2016-12-30T07:17:09.886Z,1025.44
2016-12-30T07:18:09.899Z,1025.46
2016-12-30T07:19:09.910Z,1025.41
2016-12-30T07:20:09.922Z,1025.41
2016-12-30T07:21:09.935Z,1025.45
2016-12-30T07:22:09.997Z,1025.44
2016-12-30T07:23:09.962Z,1025.47
2016-12-30T07:24:09.973Z,1025.45
2016-12-30T07:25:09.987Z,1025.48
2016-12-30T07:26:09.997Z,1025.47
2016-12-30T07:27:10.010Z,1025.45
2016-12-30T07:28:10.023Z,1025.45
2016-12-30T07:29:10.038Z,1025.46
2016-12-30T07:30:10.051Z,1025.45
2016-12-30T07:31:10.062Z,1025.38
2016-12-30T07:32:10.075Z,1025.41
2016-12-30T07:33:10.085Z,1025.36
2016-12-30T07:34:10.098Z,1025.4
2016-12-30T07:35:10.107Z,1025.41
2016-12-30T07:36:10.119Z,1025.37
2016-12-30T07:37:10.131Z,1025.42
2016-12-30T07:38:10.146Z,1025.4
2016-12-30T07:39:10.155Z,1025.39
2016-12-30T07:40:10.169Z,1025.42
2016-12-30T07:41:10.183Z,1025.45
2016-12-30T07:42:10.191Z,1025.47
2016-12-30T07:43:10.207Z,1025.43
2016-12-30T07:44:10.218Z,1025.43
2016-12-30T07:45:10.229Z,1025.43
2016-12-30T07:46:10.243Z,1025.45
2016-12-30T07:47:10.253Z,1025.41
2016-12-30T07:48:10.268Z,1025.48
2016-12-30T07:49:10.277Z,1025.45
2016-12-30T07:50:10.289Z,1025.51
2016-12-30T07:51:10.302Z,1025.47
2016-12-30T07:52:10.320Z,1025.53
2016-12-30T07:53:10.326Z,1025.53
2016-12-30T07:54:10.340Z,1025.54
2016-12-30T07:55:10.352Z,1025.5
2016-12-30T07:56:10.365Z,1025.54
2016-12-30T07:57:10.378Z,1025.53
2016-12-30T07:58:10.389Z,1025.56
2016-12-30T07:59:10.400Z,1025.57
2016-12-30T08:00:10.411Z,1025.6
2016-12-30T08:01:10.426Z,1025.56
2016-12-30T08:02:10.436Z,1025.6
2016-12-30T08:03:10.449Z,1025.61
2016-12-30T08:04:10.462Z,1025.62
2016-12-30T08:05:10.473Z,1025.57
2016-12-30T08:06:10.486Z,1025.56
2016-12-30T08:07:10.499Z,1025.54
2016-12-30T08:08:10.514Z,1025.51
2016-12-30T08:09:10.521Z,1025.56
2016-12-30T08:10:10.534Z,1025.55
2016-12-30T08:11:10.546Z,1025.58
2016-12-30T08:12:10.557Z,1025.6
2016-12-30T08:13:10.578Z,1025.63
2016-12-30T08:14:10.588Z,1025.65
2016-12-30T08:15:10.600Z,1025.62
2016-12-30T08:16:10.666Z,1025.65
2016-12-30T08:17:10.620Z,1025.66
2016-12-30T08:18:10.630Z,1025.68
2016-12-30T08:19:10.644Z,1025.68
2016-12-30T08:20:10.656Z,1025.72
2016-12-30T08:21:10.669Z,1025.76
2016-12-30T08:22:10.681Z,1025.8
2016-12-30T08:23:10.692Z,1025.81
2016-12-30T08:24:10.707Z,1025.81
2016-12-30T08:25:10.722Z,1025.78
2016-12-30T08:26:10.730Z,1025.85
2016-12-30T08:27:10.741Z,1025.86
2016-12-30T08:28:10.848Z,1025.83
2016-12-30T08:29:10.766Z,1025.82
2016-12-30T08:30:10.779Z,1025.83
2016-12-30T08:31:10.793Z,1025.85
2016-12-30T08:32:10.802Z,1025.86
2016-12-30T08:33:10.907Z,1025.82
2016-12-30T08:34:10.827Z,1025.81
2016-12-30T08:35:10.839Z,1025.78
2016-12-30T08:36:10.851Z,1025.85
2016-12-30T08:37:10.867Z,1025.8
2016-12-30T08:38:10.879Z,1025.84
2016-12-30T08:39:10.887Z,1025.92
2016-12-30T08:40:10.906Z,1025.9
2016-12-30T08:41:10.915Z,1025.93
2016-12-30T08:42:10.924Z,1025.86
2016-12-30T08:43:10.939Z,1025.94
2016-12-30T08:44:10.950Z,1025.89
2016-12-30T08:45:10.966Z,1025.89
2016-12-30T08:46:10.975Z,1025.88
2016-12-30T08:47:10.987Z,1025.86
2016-12-30T08:48:10.999Z,1025.82
2016-12-30T08:49:11.011Z,1025.88
2016-12-30T08:50:11.023Z,1025.85
2016-12-30T08:51:11.036Z,1025.84
2016-12-30T08:52:11.047Z,1025.82
2016-12-30T08:53:11.059Z,1025.78
2016-12-30T08:54:11.073Z,1025.8
2016-12-30T08:55:11.084Z,1025.84
2016-12-30T08:56:11.099Z,1025.84
2016-12-30T08:57:11.110Z,1025.87
2016-12-30T08:58:11.126Z,1025.84
2016-12-30T08:59:11.134Z,1025.87
2016-12-30T09:00:11.148Z,1025.85
2016-12-30T09:01:11.159Z,1025.83
2016-12-30T09:02:11.216Z,1025.86
2016-12-30T09:03:11.182Z,1025.84
2016-12-30T09:04:11.199Z,1025.84
2016-12-30T09:05:11.208Z,1025.85
2016-12-30T09:06:11.219Z,1025.87
2016-12-30T09:07:11.232Z,1025.82
2016-12-30T09:08:11.244Z,1025.87
2016-12-30T09:09:11.256Z,1025.84
2016-12-30T09:10:11.272Z,1025.8
2016-12-30T09:11:11.283Z,1025.83
2016-12-30T09:12:11.295Z,1025.79
2016-12-30T09:13:11.307Z,1025.82
2016-12-30T09:14:11.319Z,1025.82
2016-12-30T09:15:11.331Z,1025.8
2016-12-30T09:16:11.344Z,1025.8
2016-12-30T09:17:11.356Z,1025.8
2016-12-30T09:18:11.368Z,1025.78
2016-12-30T09:19:11.380Z,1025.77
2016-12-30T09:20:11.393Z,1025.81
2016-12-30T09:21:11.405Z,1025.75
2016-12-30T09:22:11.418Z,1025.71
2016-12-30T09:23:11.430Z,1025.72
2016-12-30T09:24:11.442Z,1025.71
2016-12-30T09:25:11.746Z,1025.73
2016-12-30T09:26:11.467Z,1025.69
2016-12-30T09:27:11.479Z,1025.71
2016-12-30T09:28:11.491Z,1025.71
2016-12-30T09:29:11.504Z,1025.7
2016-12-30T09:30:11.516Z,1025.72
2016-12-30T09:31:11.530Z,1025.75
2016-12-30T09:32:11.542Z,1025.75
2016-12-30T09:33:11.555Z,1025.76
2016-12-30T09:34:11.567Z,1025.75
2016-12-30T09:35:11.579Z,1025.73
2016-12-30T09:36:11.591Z,1025.72
2016-12-30T09:37:11.605Z,1025.74
2016-12-30T09:38:11.616Z,1025.69
2016-12-30T09:39:11.628Z,1025.69
2016-12-30T09:40:11.641Z,1025.6
2016-12-30T09:41:11.653Z,1025.65
2016-12-30T09:42:11.665Z,1025.65
2016-12-30T09:43:11.681Z,1025.65
2016-12-30T09:44:11.692Z,1025.66
2016-12-30T09:45:11.718Z,1025.61
2016-12-30T09:46:11.715Z,1025.6
2016-12-30T09:47:11.728Z,1025.6
2016-12-30T09:48:11.742Z,1025.59
2016-12-30T09:49:11.754Z,1025.58
2016-12-30T09:50:11.769Z,1025.57
2016-12-30T09:51:11.780Z,1025.62
2016-12-30T09:52:11.804Z,1025.59
2016-12-30T09:53:11.807Z,1025.55
2016-12-30T09:54:11.834Z,1025.6
2016-12-30T09:55:11.832Z,1025.59
2016-12-30T09:56:11.843Z,1025.51
2016-12-30T09:57:11.853Z,1025.52
2016-12-30T09:58:11.867Z,1025.53
2016-12-30T09:59:11.879Z,1025.52
2016-12-30T10:00:11.892Z,1025.46
2016-12-30T10:01:11.903Z,1025.45
2016-12-30T10:02:11.917Z,1025.4
2016-12-30T10:03:11.933Z,1025.39
2016-12-30T10:04:11.946Z,1025.36
2016-12-30T10:05:11.955Z,1025.35
2016-12-30T10:06:11.972Z,1025.34
2016-12-30T10:07:11.984Z,1025.29
2016-12-30T10:08:11.993Z,1025.29
2016-12-30T10:09:12.011Z,1025.28
2016-12-30T10:10:12.023Z,1025.28
2016-12-30T10:11:12.032Z,1025.24
2016-12-30T10:12:12.046Z,1025.23
2016-12-30T10:13:12.056Z,1025.25
2016-12-30T10:14:12.069Z,1025.21
2016-12-30T10:15:12.081Z,1025.21
2016-12-30T10:16:12.094Z,1025.2
2016-12-30T10:17:12.107Z,1025.21
2016-12-30T10:18:12.122Z,1025.23
2016-12-30T10:19:12.135Z,1025.2
2016-12-30T10:20:12.151Z,1025.22
2016-12-30T10:21:12.158Z,1025.22
2016-12-30T10:22:12.187Z,1025.24
2016-12-30T10:23:12.187Z,1025.25
2016-12-30T10:24:12.200Z,1025.26
2016-12-30T10:25:12.210Z,1025.24
2016-12-30T10:26:12.224Z,1025.26
2016-12-30T10:27:12.238Z,1025.26
2016-12-30T10:28:12.247Z,1025.27
2016-12-30T10:29:12.264Z,1025.22
2016-12-30T10:30:12.274Z,1025.23
2016-12-30T10:31:12.291Z,1025.22
2016-12-30T10:32:12.299Z,1025.19
2016-12-30T10:33:12.314Z,1025.22
2016-12-30T10:34:12.329Z,1025.22
2016-12-30T10:35:12.343Z,1025.17
2016-12-30T10:36:12.353Z,1025.17
2016-12-30T10:37:12.368Z,1025.14
2016-12-30T10:38:12.381Z,1025.14
2016-12-30T10:39:12.395Z,1025.14
2016-12-30T10:40:12.406Z,1025.11
2016-12-30T10:41:12.416Z,1025.09
2016-12-30T10:42:12.430Z,1025.07
2016-12-30T10:43:12.442Z,1025.06
2016-12-30T10:44:12.457Z,1025.04
2016-12-30T10:45:12.471Z,1025.07
2016-12-30T10:46:12.486Z,1025.02
2016-12-30T10:47:12.494Z,1024.98
2016-12-30T10:48:12.507Z,1024.99
2016-12-30T10:49:12.522Z,1024.98
2016-12-30T10:50:12.537Z,1024.97
2016-12-30T10:51:12.547Z,1024.91
2016-12-30T10:52:12.558Z,1024.93
2016-12-30T10:53:12.572Z,1024.96
2016-12-30T10:54:12.585Z,1024.99
2016-12-30T10:55:12.596Z,1024.93
2016-12-30T10:56:12.659Z,1024.95
2016-12-30T10:57:12.622Z,1024.92
2016-12-30T10:58:12.635Z,1024.92
2016-12-30T10:59:12.648Z,1024.91
2016-12-30T11:00:12.661Z,1024.87
2016-12-30T11:01:12.675Z,1024.86
2016-12-30T11:02:12.688Z,1024.79
2016-12-30T11:03:12.700Z,1024.82
2016-12-30T11:04:12.713Z,1024.81
2016-12-30T11:05:12.727Z,1024.77
2016-12-30T11:06:12.742Z,1024.75
2016-12-30T11:07:12.754Z,1024.7
2016-12-30T11:08:12.765Z,1024.68
2016-12-30T11:09:12.779Z,1024.66
2016-12-30T11:10:12.790Z,1024.66
2016-12-30T11:11:12.803Z,1024.67
2016-12-30T11:12:12.818Z,1024.62
2016-12-30T11:13:12.831Z,1024.61
2016-12-30T11:14:12.843Z,1024.57
2016-12-30T11:15:12.858Z,1024.57
2016-12-30T11:16:12.872Z,1024.54
2016-12-30T11:17:12.883Z,1024.51
2016-12-30T11:18:12.894Z,1024.47
2016-12-30T11:19:12.906Z,1024.48
2016-12-30T11:20:12.924Z,1024.47
2016-12-30T11:21:12.932Z,1024.53
2016-12-30T11:22:12.945Z,1024.57
2016-12-30T11:23:12.960Z,1024.57
2016-12-30T11:24:12.973Z,1024.56
2016-12-30T11:25:12.985Z,1024.6
2016-12-30T11:26:12.997Z,1024.55
2016-12-30T11:27:13.011Z,1024.53
2016-12-30T11:28:13.026Z,1024.49
2016-12-30T11:29:13.036Z,1024.51
2016-12-30T11:30:13.051Z,1024.46
2016-12-30T11:31:13.065Z,1024.41
2016-12-30T11:32:13.079Z,1024.42
2016-12-30T11:33:13.089Z,1024.4
2016-12-30T11:34:13.102Z,1024.39
2016-12-30T11:35:13.119Z,1024.4
2016-12-30T11:36:13.127Z,1024.39
2016-12-30T11:37:13.141Z,1024.43
2016-12-30T11:38:13.155Z,1024.36
2016-12-30T11:39:13.166Z,1024.38
2016-12-30T11:40:13.180Z,1024.37
2016-12-30T11:41:13.192Z,1024.4
2016-12-30T11:42:13.207Z,1024.36
2016-12-30T11:43:13.218Z,1024.38
2016-12-30T11:44:13.231Z,1024.38
2016-12-30T11:45:13.245Z,1024.4
2016-12-30T11:46:13.258Z,1024.39
2016-12-30T11:47:13.271Z,1024.35
2016-12-30T11:48:13.285Z,1024.37
2016-12-30T11:49:13.297Z,1024.35
2016-12-30T11:50:13.309Z,1024.31
2016-12-30T11:51:13.323Z,1024.38
2016-12-30T11:52:13.336Z,1024.34
2016-12-30T11:53:13.350Z,1024.3
2016-12-30T11:54:13.366Z,1024.32
2016-12-30T11:55:13.376Z,1024.36
2016-12-30T11:56:13.388Z,1024.4
2016-12-30T11:57:13.402Z,1024.36
2016-12-30T11:58:13.414Z,1024.33
2016-12-30T11:59:13.428Z,1024.32
2016-12-30T12:00:13.442Z,1024.31
2016-12-30T12:01:13.454Z,1024.29
2016-12-30T12:02:13.468Z,1024.25
2016-12-30T12:03:13.480Z,1024.25
2016-12-30T12:04:13.494Z,1024.25
2016-12-30T12:05:13.506Z,1024.22
2016-12-30T12:06:13.522Z,1024.22
2016-12-30T12:07:13.533Z,1024.24